Time;durP1;ratioP1;P1;durP2;ratioP2;P2;SDS_P1;SDS_P2;PMS_P1;PMS_P2;Temp;Humidity;BMP_temperature;BMP_pressure;BME280_temperature;BME280_humidity;BME280_pressure;Samples;Min_cycle;Max_cycle;Signal;HPM_P1;HPM_P2
2022/01/18 00:01:59;;;;;;;;;;;;;;;2.17;64.83;95462.41;5079629;28;1044;-48
2022/01/18 00:04:27;;;;;;;;;;;;;;;2.24;64.45;95471.63;5079723;28;1047;-49
2022/01/18 00:06:53;;;;;;;;;;;;;;;2.30;66.41;95467.72;5079504;28;973;-48
2022/01/18 00:09:22;;;;;;;;;;;;;;;2.47;68.14;95463.94;5079532;28;973;-49
2022/01/18 00:12:13;;;;;;;;;;;;;;;2.59;67.97;95462.25;5079199;28;1897;-48
2022/01/18 00:14:42;;;;;;;;;;;;;;;2.60;69.03;95478.00;5079656;28;957;-48
2022/01/18 00:17:19;;;;;;;;;;;;;;;2.67;69.97;95475.78;5079110;28;1076;-48
2022/01/18 00:19:53;;;;;;;;;;;;;;;2.71;70.38;95479.88;5079737;28;1047;-49
2022/01/18 00:22:20;;;;;;;;;;;;;;;2.72;70.05;95478.94;5079167;28;1104;-49
2022/01/18 00:24:47;;;;;;;;;;;;;;;2.76;71.26;95487.50;5079588;28;997;-49
2022/01/18 00:27:15;;;;;;;;;;;;;;;2.77;70.58;95492.69;5079067;28;1248;-48
2022/01/18 00:29:57;;;;;;;;;;;;;;;2.81;70.50;95499.44;5079502;28;962;-49
2022/01/18 00:32:55;;;;;;;;;;;;;;;2.84;71.20;95499.22;5077891;28;1988;-49
2022/01/18 00:35:12;;;;;;;;;;;;;;;2.90;71.92;95514.66;5078854;28;1750;-49
2022/01/18 00:37:49;;;;;;;;;;;;;;;2.98;71.77;95505.34;5079037;28;1053;-49
2022/01/18 00:40:15;;;;;;;;;;;;;;;3.02;71.55;95502.41;5079374;28;1060;-49
2022/01/18 00:42:41;;;;;;;;;;;;;;;3.02;72.60;95505.03;5078969;28;977;-48
2022/01/18 00:45:07;;;;;;;;;;;;;;;3.03;72.77;95492.66;5079053;28;1089;-49
2022/01/18 00:47:33;;;;;;;;;;;;;;;3.01;73.67;95494.56;5075067;28;1032;-48
2022/01/18 00:50:01;;;;;;;;;;;;;;;3.05;73.32;95507.47;5075848;28;1136;-48
2022/01/18 00:52:30;;;;;;;;;;;;;;;3.01;74.00;95507.78;5075799;28;1918;-49
2022/01/18 00:54:59;;;;;;;;;;;;;;;2.95;75.17;95505.56;5075991;28;1052;-49
2022/01/18 00:57:25;;;;;;;;;;;;;;;2.96;75.27;95509.88;5075297;28;1025;-48
2022/01/18 00:59:51;;;;;;;;;;;;;;;2.99;74.27;95520.25;5075685;28;1030;-48
2022/01/18 01:02:17;;;;;;;;;;;;;;;2.95;75.19;95505.56;5074463;28;1064;-48
2022/01/18 01:04:48;;;;;;;;;;;;;;;2.97;74.52;95503.69;5075949;28;1005;-48
2022/01/18 01:07:15;;;;;;;;;;;;;;;3.00;74.26;95503.44;5075775;28;1048;-48
2022/01/18 01:09:41;;;;;;;;;;;;;;;3.03;74.19;95509.34;5075571;28;1097;-48
2022/01/18 01:12:07;;;;;;;;;;;;;;;3.02;73.95;95509.50;5075528;28;1930;-48
2022/01/18 01:14:34;;;;;;;;;;;;;;;3.06;73.65;95513.59;5075366;28;1096;-48
2022/01/18 01:17:13;;;;;;;;;;;;;;;2.99;73.74;95509.69;5075671;28;1016;-49
2022/01/18 01:46:26;;;;;;;;;;;;;;;2.56;78.75;95571.53;5074752;28;1263;-48
2022/01/18 01:48:55;;;;;;;;;;;;;;;2.56;78.31;95575.97;5074975;28;1028;-48
2022/01/18 01:51:28;;;;;;;;;;;;;;;2.52;78.48;95580.59;5074873;28;1028;-48
2022/01/18 01:53:55;;;;;;;;;;;;;;;2.49;76.96;95570.28;5074827;28;1902;-49
2022/01/18 01:56:21;;;;;;;;;;;;;;;2.50;75.01;95567.53;5074684;28;1025;-48
2022/01/18 01:58:47;;;;;;;;;;;;;;;2.53;72.53;95550.63;5072959;28;1025;-48
2022/01/18 02:01:13;;;;;;;;;;;;;;;2.58;69.29;95534.47;5074771;28;1043;-48
2022/01/18 02:03:39;;;;;;;;;;;;;;;2.65;67.26;95536.59;5074478;28;989;-48
2022/01/18 02:06:05;;;;;;;;;;;;;;;2.69;64.87;95543.38;5074406;28;1096;-48
2022/01/18 02:08:31;;;;;;;;;;;;;;;2.70;65.22;95538.94;5074759;28;1057;-48
2022/01/18 02:10:57;;;;;;;;;;;;;;;2.67;62.71;95549.69;5074364;28;1041;-48
2022/01/18 02:13:23;;;;;;;;;;;;;;;2.72;57.03;95543.16;5074137;28;1910;-48
2022/01/18 02:16:16;;;;;;;;;;;;;;;2.74;58.07;95550.97;5074500;28;1064;-48
2022/01/18 02:24:07;;;;;;;;;;;;;;;2.68;54.64;95546.13;5074138;28;985;-49
2022/01/18 02:26:33;;;;;;;;;;;;;;;2.70;53.81;95554.78;5073960;28;1209;-49
2022/01/18 02:29:00;;;;;;;;;;;;;;;2.67;54.17;95565.53;5073671;28;1077;-48
2022/01/18 02:31:26;;;;;;;;;;;;;;;2.63;53.12;95564.06;5074060;28;1063;-49
2022/01/18 02:33:52;;;;;;;;;;;;;;;2.60;53.48;95567.75;5073809;28;1910;-49
2022/01/18 02:36:18;;;;;;;;;;;;;;;2.59;51.98;95568.69;5073679;28;1209;-48
2022/01/18 02:38:44;;;;;;;;;;;;;;;2.59;50.81;95586.34;5073647;28;1049;-48
2022/01/18 02:41:10;;;;;;;;;;;;;;;2.54;50.87;95586.63;5072509;28;1088;-48
2022/01/18 02:43:50;;;;;;;;;;;;;;;2.48;50.70;95587.88;5073675;28;984;-49
2022/01/18 02:46:17;;;;;;;;;;;;;;;2.39;50.27;95620.19;5073597;28;1129;-48
2022/01/18 02:48:43;;;;;;;;;;;;;;;2.32;49.29;95603.03;5073792;28;993;-48
2022/01/18 02:51:09;;;;;;;;;;;;;;;2.28;50.28;95625.31;5073454;28;1097;-48
2022/01/18 02:53:51;;;;;;;;;;;;;;;2.18;49.53;95624.19;5073576;28;2008;-47
2022/01/18 02:56:17;;;;;;;;;;;;;;;2.14;48.74;95632.31;5073438;28;1066;-48
2022/01/18 02:58:43;;;;;;;;;;;;;;;2.11;48.83;95642.22;5073452;28;1087;-48
2022/01/18 03:03:53;;;;;;;;;;;;;;;2.08;48.00;95661.69;5073332;28;1100;-49
2022/01/18 03:06:19;;;;;;;;;;;;;;;2.08;47.84;95668.78;5073534;28;1043;-47
2022/01/18 03:08:45;;;;;;;;;;;;;;;2.07;48.46;95659.19;5073139;28;997;-49
2022/01/18 03:11:11;;;;;;;;;;;;;;;2.02;48.72;95670.00;5072338;28;1051;-49
2022/01/18 03:13:37;;;;;;;;;;;;;;;2.02;47.95;95669.16;5073270;28;1991;-49
2022/01/18 03:16:03;;;;;;;;;;;;;;;2.03;47.64;95689.31;5073087;28;1545;-49
2022/01/18 03:18:29;;;;;;;;;;;;;;;2.00;46.76;95705.34;5073513;28;1032;-49
2022/01/18 03:20:56;;;;;;;;;;;;;;;1.92;46.75;95726.91;5073348;28;1028;-49
2022/01/18 03:23:23;;;;;;;;;;;;;;;1.88;46.70;95730.69;5073366;28;1061;-49
2022/01/18 03:25:56;;;;;;;;;;;;;;;1.90;47.24;95742.00;5073227;28;1045;-49
2022/01/18 03:28:23;;;;;;;;;;;;;;;1.81;46.39;95729.38;5073067;28;1134;-49
2022/01/18 03:30:53;;;;;;;;;;;;;;;1.83;46.78;95735.38;5072958;28;1100;-48
2022/01/18 03:33:20;;;;;;;;;;;;;;;1.81;46.84;95748.66;5073191;28;1906;-49
2022/01/18 03:35:48;;;;;;;;;;;;;;;1.71;45.71;95739.63;5073213;28;1170;-48
2022/01/18 03:38:14;;;;;;;;;;;;;;;1.70;46.29;95753.72;5073299;28;1057;-49
2022/01/18 03:40:40;;;;;;;;;;;;;;;1.63;45.95;95769.09;5072904;28;1043;-48
2022/01/18 03:43:10;;;;;;;;;;;;;;;1.64;46.46;95776.03;5073074;28;1037;-48
2022/01/18 03:45:41;;;;;;;;;;;;;;;1.53;46.95;95800.38;5072681;28;1243;-49
2022/01/18 03:48:11;;;;;;;;;;;;;;;1.59;46.95;95803.59;5073255;28;1000;-48
2022/01/18 03:50:37;;;;;;;;;;;;;;;1.62;46.80;95813.97;5073042;28;984;-49
2022/01/18 03:53:04;;;;;;;;;;;;;;;1.59;47.41;95822.91;5073246;28;2005;-49
2022/01/18 03:55:29;;;;;;;;;;;;;;;1.56;47.31;95825.72;5072676;28;1299;-49
2022/01/18 03:57:56;;;;;;;;;;;;;;;1.44;47.66;95815.88;5072613;28;1093;-48
2022/01/18 04:00:24;;;;;;;;;;;;;;;1.45;47.94;95822.88;5072984;28;1047;-49
2022/01/18 04:02:50;;;;;;;;;;;;;;;1.40;48.17;95822.28;5072830;28;1077;-49
2022/01/18 04:05:16;;;;;;;;;;;;;;;1.28;48.20;95821.22;5072865;28;1036;-48
2022/01/18 04:07:43;;;;;;;;;;;;;;;1.28;47.83;95826.47;5072792;28;1041;-49
2022/01/18 04:10:09;;;;;;;;;;;;;;;1.27;47.82;95823.00;5072504;28;1108;-49
2022/01/18 04:12:35;;;;;;;;;;;;;;;1.22;48.01;95826.84;5072742;28;1980;-48
2022/01/18 04:15:03;;;;;;;;;;;;;;;1.19;48.46;95832.28;5072531;28;1041;-49
2022/01/18 04:28:42;;;;;;;;;;;;;;;0.98;48.37;95843.06;5042420;28;1058;-49
2022/01/18 04:31:09;;;;;;;;;;;;;;;1.08;48.38;95857.44;5076082;28;1032;-48
2022/01/18 04:33:36;;;;;;;;;;;;;;;1.07;48.51;95862.78;5076188;28;1978;-48
2022/01/18 04:36:03;;;;;;;;;;;;;;;1.09;48.22;95868.81;5074727;28;1371;-48
2022/01/18 04:38:29;;;;;;;;;;;;;;;1.09;48.06;95863.56;5076343;28;973;-48
2022/01/18 04:41:00;;;;;;;;;;;;;;;1.10;48.37;95881.91;5075926;28;993;-48
2022/01/18 04:48:55;;;;;;;;;;;;;;;1.13;49.10;95896.69;5076151;28;992;-49
2022/01/18 04:51:22;;;;;;;;;;;;;;;1.05;48.79;95904.16;5075681;28;1057;-48
2022/01/18 04:53:55;;;;;;;;;;;;;;;0.93;49.20;95887.25;5075696;28;1993;-48
2022/01/18 04:59:16;;;;;;;;;;;;;;;1.15;48.74;95918.53;5067125;28;1081;-49
2022/01/18 05:01:43;;;;;;;;;;;;;;;1.14;48.94;95922.09;5075913;28;1001;-49
2022/01/18 05:04:09;;;;;;;;;;;;;;;1.08;48.70;95922.41;5075882;28;1036;-49
2022/01/18 05:06:36;;;;;;;;;;;;;;;1.10;48.66;95917.91;5075579;28;1001;-49
2022/01/18 05:09:07;;;;;;;;;;;;;;;1.02;48.40;95922.75;5075512;28;1097;-49
2022/01/18 05:11:39;;;;;;;;;;;;;;;0.83;49.08;95936.09;5075560;28;969;-49
2022/01/18 05:14:19;;;;;;;;;;;;;;;0.77;49.81;95937.25;5075804;28;1906;-49
2022/01/18 05:16:53;;;;;;;;;;;;;;;0.77;49.79;95937.25;5075595;28;993;-49
2022/01/18 05:19:39;;;;;;;;;;;;;;;0.80;49.21;95934.47;5075338;28;1032;-49
2022/01/18 05:24:32;;;;;;;;;;;;;;;0.86;49.54;95949.94;5075437;28;996;-48
2022/01/18 05:26:59;;;;;;;;;;;;;;;0.83;49.31;95957.13;5075450;28;1055;-49
2022/01/18 05:29:25;;;;;;;;;;;;;;;0.85;49.34;95958.75;5075061;28;969;-49
2022/01/18 05:31:51;;;;;;;;;;;;;;;0.75;49.64;95961.03;5074652;28;1906;-48
2022/01/18 05:34:17;;;;;;;;;;;;;;;0.80;49.38;95968.69;5075318;28;1041;-48
2022/01/18 05:36:43;;;;;;;;;;;;;;;0.83;49.35;95957.97;5075078;28;1209;-48
2022/01/18 05:39:10;;;;;;;;;;;;;;;0.82;50.18;95984.41;5075250;28;1071;-48
2022/01/18 05:41:37;;;;;;;;;;;;;;;0.64;50.45;95983.59;5074913;28;969;-48
2022/01/18 05:44:03;;;;;;;;;;;;;;;0.68;50.50;95987.75;5075278;28;1048;-48
2022/01/18 05:46:29;;;;;;;;;;;;;;;0.68;50.53;95985.13;5074481;28;1097;-48
2022/01/18 05:48:55;;;;;;;;;;;;;;;0.78;50.25;95999.53;5075066;28;1147;-48
2022/01/18 05:51:21;;;;;;;;;;;;;;;0.77;50.75;96008.34;5074624;28;1089;-48
2022/01/18 05:53:47;;;;;;;;;;;;;;;0.76;50.03;96004.88;5074828;28;1989;-48
2022/01/18 05:56:13;;;;;;;;;;;;;;;0.86;49.72;96022.81;5074508;28;1089;-48
2022/01/18 05:58:44;;;;;;;;;;;;;;;0.88;49.51;96013.88;5074560;28;1044;-49
2022/01/18 06:01:14;;;;;;;;;;;;;;;0.76;49.92;96002.22;5074465;28;1014;-48
2022/01/18 06:04:08;;;;;;;;;;;;;;;0.76;49.85;96004.03;5074665;28;1052;-48
2022/01/18 06:06:51;;;;;;;;;;;;;;;0.77;49.70;96009.19;5074579;28;1049;-48
2022/01/18 06:09:18;;;;;;;;;;;;;;;0.70;50.42;96020.97;5073177;28;1025;-49
2022/01/18 06:11:44;;;;;;;;;;;;;;;0.74;50.01;96004.09;5074227;28;1055;-48
2022/01/18 06:14:10;;;;;;;;;;;;;;;0.84;49.78;96009.72;5074173;28;1969;-48
2022/01/18 06:16:36;;;;;;;;;;;;;;;0.85;49.63;96014.03;5074245;28;1081;-48
2022/01/18 06:19:02;;;;;;;;;;;;;;;0.91;49.63;96004.97;5074290;28;981;-48
2022/01/18 06:21:28;;;;;;;;;;;;;;;0.94;49.88;96004.81;5074568;28;1048;-48
2022/01/18 06:23:54;;;;;;;;;;;;;;;0.84;49.89;96009.72;5074212;28;1025;-49
2022/01/18 06:26:20;;;;;;;;;;;;;;;0.85;50.23;96008.78;5073926;28;1071;-48
2022/01/18 06:28:46;;;;;;;;;;;;;;;0.82;50.16;96006.31;5073953;28;997;-49
2022/01/18 06:31:15;;;;;;;;;;;;;;;0.88;49.94;96013.88;5074192;28;993;-49
2022/01/18 06:33:41;;;;;;;;;;;;;;;1.09;49.36;96016.31;5073876;28;1930;-48
2022/01/18 06:36:06;;;;;;;;;;;;;;;2.02;47.73;96018.19;5073765;28;1126;-49
2022/01/18 06:38:33;;;;;;;;;;;;;;;5.82;40.76;96009.56;5073963;28;973;-48
2022/01/18 06:40:58;;;;;;;;;;;;;;;9.57;33.26;96005.53;5073971;28;1009;-48
2022/01/18 06:43:24;;;;;;;;;;;;;;;11.03;30.86;96007.59;5073080;28;1053;-49
2022/01/18 06:45:50;;;;;;;;;;;;;;;11.28;32.13;96005.31;5073457;28;1231;-48
2022/01/18 06:48:16;;;;;;;;;;;;;;;12.26;29.16;96006.63;5073760;28;1048;-49
2022/01/18 06:50:42;;;;;;;;;;;;;;;13.22;29.24;96002.44;5073953;28;1001;-49
2022/01/18 06:53:08;;;;;;;;;;;;;;;11.31;28.81;95989.81;5073348;28;1918;-50
2022/01/18 06:55:34;;;;;;;;;;;;;;;11.35;29.04;96014.44;5073357;28;1108;-49
2022/01/18 06:58:01;;;;;;;;;;;;;;;13.64;26.44;96034.03;5073480;28;961;-49
2022/01/18 07:00:27;;;;;;;;;;;;;;;16.23;23.43;96041.13;5073599;28;1041;-50
2022/01/18 07:02:53;;;;;;;;;;;;;;;17.37;21.79;96063.94;5073468;28;1083;-49
2022/01/18 07:05:19;;;;;;;;;;;;;;;18.83;20.10;96081.53;5073416;28;1008;-49
2022/01/18 07:07:47;;;;;;;;;;;;;;;18.44;21.35;96069.16;5073251;28;1100;-55
2022/01/18 07:10:13;;;;;;;;;;;;;;;15.75;22.78;96085.06;5073191;28;1055;-49
2022/01/18 07:12:39;;;;;;;;;;;;;;;15.75;23.04;96086.94;5073430;28;1984;-49
2022/01/18 07:15:08;;;;;;;;;;;;;;;14.82;23.38;96082.63;5073626;28;1185;-48
2022/01/18 07:17:35;;;;;;;;;;;;;;;13.69;24.85;96087.28;5073459;28;1063;-49
2022/01/18 07:20:02;;;;;;;;;;;;;;;14.31;24.71;96082.59;5073469;28;1037;-49
2022/01/18 07:22:28;;;;;;;;;;;;;;;16.13;22.77;96087.19;5073448;28;1059;-49
2022/01/18 07:24:57;;;;;;;;;;;;;;;16.62;21.68;96081.59;5072897;28;1005;-49
2022/01/18 07:27:23;;;;;;;;;;;;;;;16.30;22.06;96094.22;5072961;28;1037;-49
2022/01/18 07:29:49;;;;;;;;;;;;;;;16.34;21.85;96100.09;5073165;28;985;-48
2022/01/18 07:32:15;;;;;;;;;;;;;;;16.71;22.23;96101.28;5071784;28;1910;-50
2022/01/18 07:34:51;;;;;;;;;;;;;;;17.93;20.94;96105.06;5073270;28;1887;-50
2022/01/18 07:37:17;;;;;;;;;;;;;;;18.76;20.06;96118.50;5072895;28;1181;-51
2022/01/18 07:39:43;;;;;;;;;;;;;;;18.85;19.75;96116.59;5073054;28;1013;-50
2022/01/18 07:42:09;;;;;;;;;;;;;;;18.28;19.91;96113.50;5073267;28;1052;-49
2022/01/18 07:44:35;;;;;;;;;;;;;;;16.25;22.05;96120.03;5072969;28;1251;-50
2022/01/18 07:47:01;;;;;;;;;;;;;;;13.48;25.45;96124.22;5073063;28;1030;-49
2022/01/18 07:49:27;;;;;;;;;;;;;;;10.06;29.62;96120.59;5072782;28;1046;-48
2022/01/18 07:51:53;;;;;;;;;;;;;;;8.53;32.47;96121.03;5073154;28;1902;-49
2022/01/18 07:54:19;;;;;;;;;;;;;;;7.45;34.38;96113.53;5072593;28;998;-48
2022/01/18 07:56:45;;;;;;;;;;;;;;;6.61;35.70;96116.25;5076690;28;1005;-48
2022/01/18 07:59:11;;;;;;;;;;;;;;;5.99;37.14;96117.19;5076606;28;977;-48
2022/01/18 08:01:38;;;;;;;;;;;;;;;5.29;38.52;96122.94;5077189;28;960;-48
2022/01/18 08:04:04;;;;;;;;;;;;;;;5.27;38.65;96131.03;5076726;28;1043;-49
2022/01/18 08:06:30;;;;;;;;;;;;;;;5.17;38.88;96126.44;5077232;28;1989;-50
2022/01/18 08:08:56;;;;;;;;;;;;;;;5.13;38.48;96119.66;5076418;28;1013;-49
2022/01/18 08:11:22;;;;;;;;;;;;;;;5.05;39.74;96117.53;5076584;28;1061;-50
2022/01/18 08:13:50;;;;;;;;;;;;;;;4.94;39.95;96126.19;5076413;28;2017;-49
2022/01/18 08:18:56;;;;;;;;;;;;;;;5.00;38.55;96132.88;5076761;28;994;-50
2022/01/18 08:21:22;;;;;;;;;;;;;;;4.75;39.59;96131.03;5076313;28;1116;-49
2022/01/18 08:23:48;;;;;;;;;;;;;;;4.72;38.92;96137.34;5076200;28;1100;-49
2022/01/18 08:26:15;;;;;;;;;;;;;;;4.67;39.10;96139.47;5076330;28;1073;-49
2022/01/18 08:28:41;;;;;;;;;;;;;;;4.54;39.73;96144.72;5076273;28;1049;-49
2022/01/18 08:31:07;;;;;;;;;;;;;;;4.73;39.31;96143.53;5076164;28;1046;-49
2022/01/18 08:33:33;;;;;;;;;;;;;;;4.69;39.00;96143.72;5076235;28;1993;-49
2022/01/18 08:36:00;;;;;;;;;;;;;;;4.85;38.81;96143.53;5075994;28;1209;-49
2022/01/18 08:38:27;;;;;;;;;;;;;;;4.99;38.13;96150.59;5076238;28;977;-48
2022/01/18 08:40:54;;;;;;;;;;;;;;;5.03;38.37;96151.25;5076216;28;1036;-48
2022/01/18 08:43:21;;;;;;;;;;;;;;;4.91;38.27;96160.84;5076460;28;1103;-48
2022/01/18 08:45:47;;;;;;;;;;;;;;;4.86;38.27;96155.00;5075837;28;1220;-49
2022/01/18 08:48:13;;;;;;;;;;;;;;;4.98;37.88;96166.59;5076030;28;1183;-48
2022/01/18 08:50:39;;;;;;;;;;;;;;;5.14;37.57;96159.31;5075762;28;1016;-48
2022/01/18 08:53:06;;;;;;;;;;;;;;;5.19;37.28;96173.09;5074802;28;1918;-48
2022/01/18 08:55:34;;;;;;;;;;;;;;;5.21;37.55;96165.88;5075968;28;1039;-48
2022/01/18 08:58:02;;;;;;;;;;;;;;;5.37;37.47;96164.84;5075956;28;984;-48
2022/01/18 09:00:30;;;;;;;;;;;;;;;5.45;36.29;96166.03;5075686;28;1044;-48
2022/01/18 09:02:57;;;;;;;;;;;;;;;5.99;34.92;96158.84;5076070;28;973;-47
2022/01/18 09:05:24;;;;;;;;;;;;;;;7.04;33.79;96152.97;5075403;28;976;-47
2022/01/18 09:07:51;;;;;;;;;;;;;;;8.75;31.50;96152.13;5075143;28;984;-48
2022/01/18 09:10:17;;;;;;;;;;;;;;;10.45;29.01;96157.34;5075572;28;990;-48
2022/01/18 09:12:43;;;;;;;;;;;;;;;12.80;26.24;96159.63;5075612;28;1991;-48
2022/01/18 09:15:09;;;;;;;;;;;;;;;14.99;23.40;96154.38;5075589;28;1043;-48
2022/01/18 09:17:36;;;;;;;;;;;;;;;16.18;22.15;96157.63;5075544;28;965;-48
2022/01/18 09:20:06;;;;;;;;;;;;;;;17.32;21.13;96161.78;5075274;28;1057;-48
2022/01/18 09:22:35;;;;;;;;;;;;;;;18.14;19.51;96161.19;5075343;28;1113;-49
2022/01/18 09:25:03;;;;;;;;;;;;;;;18.10;19.06;96154.47;5075186;28;1061;-48
2022/01/18 09:27:29;;;;;;;;;;;;;;;16.70;20.46;96153.63;5075064;28;1089;-48
2022/01/18 09:29:55;;;;;;;;;;;;;;;17.32;19.19;96152.81;5075151;28;1048;-49
2022/01/18 09:32:22;;;;;;;;;;;;;;;20.05;17.50;96161.25;5075321;28;1918;-53
2022/01/18 09:34:49;;;;;;;;;;;;;;;21.84;15.60;96145.06;5075264;28;957;-49
2022/01/18 09:37:15;;;;;;;;;;;;;;;23.74;14.58;96143.38;5075040;28;1252;-49
2022/01/18 09:39:41;;;;;;;;;;;;;;;24.72;13.64;96133.81;5075339;28;1048;-49
2022/01/18 09:42:10;;;;;;;;;;;;;;;25.41;13.18;96134.47;5075079;28;991;-49
2022/01/18 09:44:36;;;;;;;;;;;;;;;26.02;12.68;96126.25;5075051;28;1097;-50
2022/01/18 09:47:03;;;;;;;;;;;;;;;26.65;11.78;96130.28;5074776;28;1145;-48
2022/01/18 09:49:29;;;;;;;;;;;;;;;25.95;11.78;96129.09;5075105;28;993;-48
2022/01/18 09:51:55;;;;;;;;;;;;;;;25.92;12.75;96126.84;5074827;28;1063;-48
2022/01/18 09:54:21;;;;;;;;;;;;;;;26.32;11.69;96134.41;5074716;28;1894;-49
2022/01/18 09:56:47;;;;;;;;;;;;;;;27.13;11.93;96133.81;5074488;28;1101;-48
2022/01/18 09:59:13;;;;;;;;;;;;;;;27.18;11.26;96136.66;5074675;28;1059;-48
2022/01/18 10:01:39;;;;;;;;;;;;;;;27.32;11.67;96140.84;5074526;28;961;-48
2022/01/18 10:04:22;;;;;;;;;;;;;;;25.86;11.92;96141.44;5074811;28;985;-49
2022/01/18 10:06:49;;;;;;;;;;;;;;;25.46;11.91;96137.38;5074219;28;1097;-48
2022/01/18 10:09:17;;;;;;;;;;;;;;;25.38;12.52;96148.63;5074609;28;1005;-48
2022/01/18 10:12:01;;;;;;;;;;;;;;;26.13;12.00;96149.28;5074529;28;997;-48
2022/01/18 10:14:27;;;;;;;;;;;;;;;26.88;12.19;96149.50;5074235;28;1054;-48
2022/01/18 10:16:53;;;;;;;;;;;;;;;27.12;11.66;96151.38;5074343;28;949;-48
2022/01/18 10:19:55;;;;;;;;;;;;;;;26.39;11.33;96151.59;5073239;28;2019;-48
2022/01/18 10:22:27;;;;;;;;;;;;;;;25.14;12.38;96140.25;5011961;28;1323;-47
2022/01/18 10:24:53;;;;;;;;;;;;;;;21.71;14.17;96133.31;5064288;28;1127;-48
2022/01/18 10:27:19;;;;;;;;;;;;;;;17.58;17.94;96132.72;5073916;28;1039;-47
2022/01/18 10:29:49;;;;;;;;;;;;;;;15.16;20.04;96130.16;5074186;28;988;-47
2022/01/18 10:32:39;;;;;;;;;;;;;;;13.52;21.30;96130.13;5073562;28;1914;-47
2022/01/18 10:35:05;;;;;;;;;;;;;;;13.87;21.32;96128.41;5073967;28;1173;-46
2022/01/18 10:37:33;;;;;;;;;;;;;;;16.53;18.97;96115.06;5073906;28;1016;-46
2022/01/18 10:39:59;;;;;;;;;;;;;;;20.71;15.43;96124.78;5073016;28;996;-47
2022/01/18 10:42:28;;;;;;;;;;;;;;;22.72;14.22;96132.25;5073750;28;1041;-47
2022/01/18 10:44:59;;;;;;;;;;;;;;;22.72;13.87;96124.06;5073816;28;1081;-46
2022/01/18 10:47:25;;;;;;;;;;;;;;;21.71;14.46;96119.72;5073622;28;973;-47
2022/01/18 10:49:51;;;;;;;;;;;;;;;18.82;16.36;96109.69;5073883;28;969;-46
2022/01/18 10:52:20;;;;;;;;;;;;;;;15.64;18.83;96111.50;5073472;28;1997;-46
2022/01/18 10:54:49;;;;;;;;;;;;;;;13.42;21.05;96119.47;5073927;28;1059;-46
2022/01/18 10:57:22;;;;;;;;;;;;;;;12.86;22.60;96116.09;5073308;28;957;-46
2022/01/18 10:59:49;;;;;;;;;;;;;;;12.55;22.33;96110.19;5073576;28;1041;-47
2022/01/18 11:02:18;;;;;;;;;;;;;;;12.58;22.58;96115.28;5073505;28;1021;-47
2022/01/18 11:04:46;;;;;;;;;;;;;;;11.93;22.97;96114.41;5073501;28;1096;-47
2022/01/18 11:07:14;;;;;;;;;;;;;;;11.25;23.86;96116.22;5073327;28;1049;-46
2022/01/18 11:09:40;;;;;;;;;;;;;;;11.30;23.66;96123.81;5073693;28;985;-47
2022/01/18 11:12:06;;;;;;;;;;;;;;;11.40;23.18;96113.94;5073244;28;1906;-46
2022/01/18 11:14:33;;;;;;;;;;;;;;;11.44;23.51;96110.00;5073648;28;1052;-46
2022/01/18 11:17:00;;;;;;;;;;;;;;;11.04;23.87;96108.34;5073103;28;957;-46
2022/01/18 11:21:54;;;;;;;;;;;;;;;11.00;24.46;96122.94;5073200;28;949;-46
2022/01/18 11:24:20;;;;;;;;;;;;;;;11.02;24.26;96114.78;5073372;28;1048;-46
2022/01/18 11:26:47;;;;;;;;;;;;;;;10.36;24.59;96118.91;5073563;28;1064;-46
2022/01/18 11:29:18;;;;;;;;;;;;;;;10.14;25.53;96109.22;5072871;28;917;-46
2022/01/18 11:31:45;;;;;;;;;;;;;;;9.93;25.87;96119.97;5071487;28;1049;-48
2022/01/18 11:34:13;;;;;;;;;;;;;;;9.23;26.04;96113.50;5073325;28;1977;-48
2022/01/18 11:36:46;;;;;;;;;;;;;;;8.97;26.75;96100.50;5072844;28;1173;-48
2022/01/18 11:39:16;;;;;;;;;;;;;;;8.77;27.09;96099.53;5073122;28;1065;-49
2022/01/18 11:41:43;;;;;;;;;;;;;;;8.63;26.81;96086.47;5073346;28;993;-48
2022/01/18 11:44:13;;;;;;;;;;;;;;;8.25;27.10;96091.25;5073091;28;1029;-49
2022/01/18 11:46:52;;;;;;;;;;;;;;;8.20;26.74;96088.13;5072907;28;1100;-49
2022/01/18 11:49:21;;;;;;;;;;;;;;;8.23;27.13;96093.19;5072989;28;1108;-49
2022/01/18 11:51:53;;;;;;;;;;;;;;;8.06;27.65;96093.69;5072952;28;997;-48
2022/01/18 11:54:19;;;;;;;;;;;;;;;8.34;27.64;96092.34;5072879;28;1990;-49
2022/01/18 11:56:46;;;;;;;;;;;;;;;8.10;26.90;96087.16;5073091;28;1048;-48
2022/01/18 11:59:15;;;;;;;;;;;;;;;7.98;26.64;96092.50;5072795;28;985;-48
2022/01/18 12:02:00;;;;;;;;;;;;;;;7.86;27.27;96087.31;5072916;28;1045;-49
2022/01/18 12:04:46;;;;;;;;;;;;;;;7.88;27.11;96094.19;5073075;28;993;-48
2022/01/18 12:07:48;;;;;;;;;;;;;;;8.11;27.61;96092.38;5072375;28;1014;-48
2022/01/18 12:10:20;;;;;;;;;;;;;;;7.90;28.02;96094.94;5010676;28;1284;-48
2022/01/18 12:12:48;;;;;;;;;;;;;;;7.80;27.67;96094.81;5062746;28;2033;-48
2022/01/18 12:15:18;;;;;;;;;;;;;;;7.83;27.92;96109.69;5072747;28;1161;-48
2022/01/18 12:17:54;;;;;;;;;;;;;;;7.53;28.39;96103.16;5072549;28;974;-48
2022/01/18 12:20:44;;;;;;;;;;;;;;;7.41;28.43;96096.94;5072556;28;1049;-49
2022/01/18 12:23:12;;;;;;;;;;;;;;;7.56;29.48;96094.91;5063439;28;1580;-49
2022/01/18 12:25:54;;;;;;;;;;;;;;;7.40;29.03;96099.75;5072963;28;1055;-48
2022/01/18 12:28:44;;;;;;;;;;;;;;;7.27;29.23;96101.66;5072492;28;993;-48
2022/01/18 12:31:40;;;;;;;;;;;;;;;7.30;29.82;96098.75;5072598;28;1069;-49
2022/01/18 12:34:24;;;;;;;;;;;;;;;7.16;29.44;96105.13;5072257;28;1910;-49
2022/01/18 12:37:11;;;;;;;;;;;;;;;6.95;30.03;96105.78;5072341;28;1183;-48
2022/01/18 12:40:05;;;;;;;;;;;;;;;6.89;30.17;96111.56;5058895;28;1463;-48
2022/01/18 12:45:02;;;;;;;;;;;;;;;7.03;29.40;96118.50;5075882;28;1093;-48
2022/01/18 12:47:28;;;;;;;;;;;;;;;6.86;30.82;96121.56;5076295;28;1051;-48
2022/01/18 12:49:54;;;;;;;;;;;;;;;6.81;30.11;96108.59;5076125;28;1116;-48
2022/01/18 12:52:21;;;;;;;;;;;;;;;6.51;30.98;96117.06;5075937;28;1988;-48
2022/01/18 12:54:48;;;;;;;;;;;;;;;6.36;31.64;96116.38;5075779;28;1870;-48
2022/01/18 12:57:19;;;;;;;;;;;;;;;6.23;31.58;96127.03;5075756;28;1064;-48
2022/01/18 13:00:02;;;;;;;;;;;;;;;6.13;31.68;96121.53;5075993;28;1045;-48
2022/01/18 13:02:28;;;;;;;;;;;;;;;6.08;31.22;96120.19;5076020;28;969;-48
2022/01/18 13:04:58;;;;;;;;;;;;;;;5.74;31.97;96122.53;5075609;28;1041;-48
2022/01/18 13:07:24;;;;;;;;;;;;;;;5.49;32.21;96116.28;5075755;28;1041;-48
2022/01/18 13:10:03;;;;;;;;;;;;;;;5.55;32.54;96121.16;5075501;28;1044;-48
2022/01/18 13:12:36;;;;;;;;;;;;;;;5.55;32.77;96123.81;5074488;28;1918;-48
2022/01/18 13:15:04;;;;;;;;;;;;;;;5.52;32.50;96125.81;5075410;28;1135;-48
2022/01/18 13:23:08;;;;;;;;;;;;;;;5.16;33.27;96135.34;5059246;28;1167;-48
2022/01/18 13:25:46;;;;;;;;;;;;;;;5.18;32.59;96121.03;5075414;28;1028;-48
2022/01/18 13:28:12;;;;;;;;;;;;;;;5.10;33.23;96126.00;5075373;28;1072;-48
2022/01/18 13:30:39;;;;;;;;;;;;;;;5.08;33.32;96127.91;5075165;28;1036;-48
2022/01/18 13:33:06;;;;;;;;;;;;;;;5.13;32.49;96125.81;5075069;28;1982;-48
2022/01/18 13:35:32;;;;;;;;;;;;;;;5.01;32.84;96122.19;5074900;28;1145;-48
2022/01/18 13:38:00;;;;;;;;;;;;;;;4.97;33.14;96112.75;5075447;28;1045;-48
2022/01/18 13:40:27;;;;;;;;;;;;;;;4.97;32.52;96119.81;5074828;28;1073;-48
2022/01/18 13:43:04;;;;;;;;;;;;;;;5.01;32.51;96122.19;5075114;28;1059;-48
2022/01/18 13:45:31;;;;;;;;;;;;;;;5.15;32.66;96123.06;5074551;28;1377;-48
2022/01/18 13:48:00;;;;;;;;;;;;;;;5.18;32.34;96134.28;5075251;28;985;-48
2022/01/18 13:50:45;;;;;;;;;;;;;;;5.23;32.40;96129.50;5074459;28;1037;-48
2022/01/18 13:53:14;;;;;;;;;;;;;;;4.96;33.35;96126.09;5074598;28;1910;-48
2022/01/18 13:55:51;;;;;;;;;;;;;;;4.96;33.46;96134.03;5074588;28;1025;-48
2022/01/18 13:58:21;;;;;;;;;;;;;;;4.89;33.02;96128.28;5074485;28;1029;-48
2022/01/18 14:00:47;;;;;;;;;;;;;;;4.84;32.69;96130.41;5074694;28;957;-48
2022/01/18 14:03:29;;;;;;;;;;;;;;;4.78;33.21;96138.75;5074854;28;969;-48
2022/01/18 14:05:55;;;;;;;;;;;;;;;4.63;33.03;96133.53;5074538;28;1040;-48
2022/01/18 14:08:30;;;;;;;;;;;;;;;4.62;33.25;96136.28;5074354;28;1046;-48
2022/01/18 14:11:06;;;;;;;;;;;;;;;4.57;33.82;96143.66;5074718;28;1063;-48
2022/01/18 14:13:36;;;;;;;;;;;;;;;4.58;33.43;96140.06;5073142;28;1917;-48
2022/01/18 14:16:25;;;;;;;;;;;;;;;4.46;33.60;96147.03;5074209;28;1037;-48
2022/01/18 14:18:59;;;;;;;;;;;;;;;4.35;33.84;96144.22;5064768;28;1154;-48
2022/01/18 14:21:37;;;;;;;;;;;;;;;4.38;34.23;96150.16;5074305;28;1971;-48
2022/01/18 14:24:06;;;;;;;;;;;;;;;4.27;34.48;96155.31;5074521;28;1037;-48
2022/01/18 14:26:32;;;;;;;;;;;;;;;4.16;34.76;96155.13;5074050;28;1053;-48
2022/01/18 14:28:59;;;;;;;;;;;;;;;4.05;35.03;96155.81;5074230;28;1021;-48